createdAt,value
2019-05-20T00:01:30.552Z,63.17
2019-05-20T00:04:08.153Z,62.00
2019-05-20T00:06:45.362Z,62.65
2019-05-20T00:09:23.366Z,62.42
2019-05-20T00:12:01.242Z,62.05
2019-05-20T00:14:40.043Z,60.70
2019-05-20T00:17:17.758Z,62.07
2019-05-20T00:19:55.703Z,62.33
2019-05-20T00:22:34.383Z,62.19
2019-05-20T00:25:12.983Z,62.22
2019-05-20T00:27:50.674Z,60.96
2019-05-20T00:30:28.883Z,60.24
2019-05-20T00:33:06.594Z,60.95
2019-05-20T00:35:44.203Z,59.50
2019-05-20T00:38:22.202Z,60.27
2019-05-20T00:41:00.462Z,60.43
2019-05-20T00:43:38.929Z,61.12
2019-05-20T00:46:16.335Z,60.79
2019-05-20T00:48:54.307Z,59.95
2019-05-20T00:51:31.703Z,60.06
2019-05-20T00:54:10.551Z,59.74
2019-05-20T00:56:48.426Z,60.36
2019-05-20T00:59:25.989Z,59.27
2019-05-20T01:02:03.835Z,58.08
2019-05-20T01:04:40.976Z,56.99
2019-05-20T01:07:19.070Z,56.14
2019-05-20T01:09:56.829Z,54.88
2019-05-20T01:12:34.399Z,55.03
2019-05-20T01:15:11.706Z,54.43
2019-05-20T01:17:49.054Z,53.86
2019-05-20T01:20:26.652Z,53.59
2019-05-20T01:23:03.852Z,53.94
2019-05-20T01:25:42.388Z,53.98
2019-05-20T01:28:21.437Z,52.82
2019-05-20T01:30:59.303Z,54.31
2019-05-20T01:33:37.463Z,53.65
2019-05-20T01:36:16.000Z,53.63
2019-05-20T01:38:53.520Z,52.01
2019-05-20T01:41:30.850Z,51.40
2019-05-20T01:44:09.506Z,51.63
2019-05-20T01:46:47.380Z,51.05
2019-05-20T01:49:24.731Z,49.39
2019-05-20T01:52:02.697Z,49.66
2019-05-20T01:54:40.459Z,50.32
2019-05-20T01:57:19.593Z,48.33
2019-05-20T01:59:57.498Z,48.89
2019-05-20T02:02:34.966Z,49.75
2019-05-20T02:05:12.889Z,49.97
2019-05-20T02:07:50.352Z,49.69
2019-05-20T02:10:28.100Z,49.13
2019-05-20T02:13:06.117Z,47.92
2019-05-20T02:15:49.577Z,49.04
2019-05-20T02:18:27.431Z,49.10
2019-05-20T02:21:04.765Z,46.91
2019-05-20T02:23:42.730Z,48.88
2019-05-20T02:26:20.960Z,49.70
2019-05-20T02:28:59.896Z,50.10
2019-05-20T02:31:38.453Z,50.68
2019-05-20T02:34:16.304Z,49.19
2019-05-20T02:36:54.444Z,47.49
2019-05-20T02:39:31.918Z,47.53
2019-05-20T02:42:09.463Z,45.46
2019-05-20T02:44:48.392Z,46.90
2019-05-20T02:47:26.074Z,47.65
2019-05-20T02:50:03.262Z,45.57
2019-05-20T02:52:40.677Z,47.05
2019-05-20T02:55:18.320Z,46.36
2019-05-20T02:57:56.283Z,45.75
2019-05-20T03:00:35.829Z,44.35
2019-05-20T03:03:13.423Z,45.02
2019-05-20T03:05:51.151Z,45.13
2019-05-20T03:08:29.402Z,43.74
2019-05-20T03:11:06.708Z,44.79
2019-05-20T03:13:44.054Z,44.69
2019-05-20T03:16:22.525Z,43.79
2019-05-20T03:19:00.476Z,42.73
2019-05-20T03:21:37.756Z,43.42
2019-05-20T03:24:14.794Z,43.01
2019-05-20T03:26:52.322Z,42.36
2019-05-20T03:29:30.638Z,42.29
2019-05-20T03:32:09.506Z,42.25
2019-05-20T03:34:57.524Z,43.71
2019-05-20T03:37:26.275Z,43.43
2019-05-20T03:40:04.732Z,43.54
2019-05-20T03:42:42.599Z,44.42
2019-05-20T03:45:20.440Z,44.97
2019-05-20T03:47:58.232Z,44.85
2019-05-20T03:50:36.781Z,44.00
2019-05-20T03:53:13.898Z,43.59
2019-05-20T03:55:51.587Z,43.96
2019-05-20T03:58:29.531Z,42.34
2019-05-20T04:01:08.277Z,42.30
2019-05-20T04:03:47.872Z,42.96
2019-05-20T04:06:25.477Z,40.45
2019-05-20T04:09:05.106Z,41.64
2019-05-20T04:11:42.608Z,41.36
2019-05-20T04:14:19.863Z,41.96
2019-05-20T04:17:00.023Z,40.73
2019-05-20T04:19:37.734Z,42.32
2019-05-20T04:22:15.164Z,42.33
2019-05-20T04:24:52.894Z,43.16
2019-05-20T04:27:31.353Z,43.68
2019-05-20T04:30:09.320Z,43.91
2019-05-20T04:32:46.943Z,44.11
2019-05-20T04:35:25.251Z,43.55
2019-05-20T04:38:02.633Z,41.99
2019-05-20T04:40:40.204Z,43.46
2019-05-20T04:43:19.425Z,43.40
2019-05-20T04:45:58.388Z,42.70
2019-05-20T04:48:35.625Z,41.73
2019-05-20T04:51:14.560Z,42.77
2019-05-20T04:53:52.565Z,42.33
2019-05-20T04:56:30.030Z,41.93
2019-05-20T04:59:07.411Z,40.51
2019-05-20T05:01:44.717Z,41.09
2019-05-20T05:04:22.687Z,43.38
2019-05-20T05:07:01.956Z,42.05
2019-05-20T05:09:39.289Z,41.43
2019-05-20T05:12:16.723Z,42.44
2019-05-20T05:14:55.101Z,42.33
2019-05-20T05:17:32.915Z,41.92
2019-05-20T05:20:17.690Z,41.69
2019-05-20T05:22:50.024Z,42.20
2019-05-20T05:25:27.754Z,42.78
2019-05-20T05:28:05.354Z,42.48
2019-05-20T05:30:43.334Z,41.13
2019-05-20T05:33:21.248Z,41.19
2019-05-20T05:35:59.143Z,42.89
2019-05-20T05:38:38.934Z,40.97
2019-05-20T05:41:16.244Z,41.45
2019-05-20T05:43:53.639Z,42.00
2019-05-20T05:46:32.706Z,41.69
2019-05-20T05:49:10.547Z,41.14
2019-05-20T05:51:47.066Z,41.10
2019-05-20T05:54:24.214Z,40.50
2019-05-20T05:57:02.471Z,42.38
2019-05-20T05:59:41.564Z,39.99
2019-05-20T06:02:19.228Z,39.86
2019-05-20T06:04:57.432Z,39.86
2019-05-20T06:07:38.284Z,45.00
2019-05-20T06:10:16.743Z,44.59
2019-05-20T06:12:53.851Z,44.29
2019-05-20T06:15:31.609Z,44.92
2019-05-20T06:18:09.182Z,43.98
2019-05-20T06:20:46.364Z,42.68
2019-05-20T06:23:23.903Z,43.76
2019-05-20T06:26:01.436Z,43.92
2019-05-20T06:28:39.080Z,47.83
2019-05-20T06:31:16.937Z,48.77
2019-05-20T06:33:54.222Z,47.71
2019-05-20T06:36:34.318Z,48.15
2019-05-20T06:39:15.802Z,49.46
2019-05-20T06:41:54.578Z,51.83
2019-05-20T06:44:31.907Z,52.55
2019-05-20T06:47:10.269Z,52.43
2019-05-20T06:49:48.021Z,53.71
2019-05-20T06:52:35.521Z,54.09
2019-05-20T06:55:05.357Z,54.65
2019-05-20T06:57:42.803Z,54.02
2019-05-20T07:00:25.581Z,54.63
2019-05-20T07:03:03.114Z,53.69
2019-05-20T07:05:40.301Z,53.04
2019-05-20T07:08:17.469Z,52.75
2019-05-20T07:10:55.221Z,52.85
2019-05-20T07:13:33.682Z,51.36
2019-05-20T07:16:11.183Z,51.42
2019-05-20T07:18:48.830Z,51.50
2019-05-20T07:21:26.530Z,51.03
2019-05-20T07:24:04.598Z,51.59
2019-05-20T07:26:42.083Z,50.70
2019-05-20T07:29:19.592Z,50.75
2019-05-20T07:31:57.146Z,51.39
2019-05-20T07:34:34.381Z,50.17
2019-05-20T07:37:11.670Z,49.85
2019-05-20T07:39:49.422Z,50.67
2019-05-20T07:42:27.478Z,50.91
2019-05-20T07:45:05.689Z,50.87
2019-05-20T07:47:44.587Z,50.79
2019-05-20T07:50:22.389Z,51.36
2019-05-20T07:53:00.852Z,52.60
2019-05-20T07:55:41.835Z,51.27
2019-05-20T07:58:20.218Z,50.58
2019-05-20T08:00:57.477Z,49.92
2019-05-20T08:03:38.526Z,50.79
2019-05-20T08:06:15.143Z,50.49
2019-05-20T08:08:52.098Z,50.90
2019-05-20T08:11:29.192Z,50.55
2019-05-20T08:14:07.762Z,49.89
2019-05-20T08:16:47.630Z,49.83
2019-05-20T08:19:24.730Z,48.21
2019-05-20T08:22:03.520Z,48.48
2019-05-20T08:24:41.531Z,48.30
2019-05-20T08:27:18.962Z,47.58
2019-05-20T08:29:57.469Z,47.75
2019-05-20T08:32:35.589Z,47.14
2019-05-20T08:35:13.501Z,47.63
2019-05-20T08:37:50.947Z,46.93
2019-05-20T08:40:29.895Z,47.13
2019-05-20T08:43:07.097Z,47.66
2019-05-20T08:45:45.793Z,47.58
2019-05-20T08:48:24.136Z,48.15
2019-05-20T08:51:02.290Z,49.15
2019-05-20T08:53:39.954Z,51.02
2019-05-20T08:56:17.487Z,52.80
2019-05-20T08:58:54.870Z,50.28
2019-05-20T09:01:33.206Z,51.63
2019-05-20T09:04:11.344Z,53.12
2019-05-20T09:06:48.843Z,53.74
2019-05-20T09:09:26.753Z,54.78
2019-05-20T09:12:11.373Z,55.42
2019-05-20T09:14:48.454Z,57.18
2019-05-20T09:17:25.698Z,57.12
2019-05-20T09:20:02.956Z,58.16
2019-05-20T09:22:41.772Z,58.37
2019-05-20T09:25:21.203Z,59.47
2019-05-20T09:27:59.062Z,60.40
2019-05-20T09:30:37.208Z,60.13
2019-05-20T09:33:15.021Z,59.59
2019-05-20T09:35:53.739Z,60.53
2019-05-20T09:38:31.476Z,60.88
2019-05-20T09:41:09.059Z,60.48
2019-05-20T09:43:47.019Z,59.81
2019-05-20T09:46:24.197Z,60.42
2019-05-20T09:49:02.064Z,61.01
2019-05-20T09:51:39.293Z,60.71
2019-05-20T09:54:17.772Z,60.51
2019-05-20T09:56:55.105Z,60.13
2019-05-20T09:59:42.495Z,60.08
2019-05-20T10:02:11.118Z,59.80
2019-05-20T10:04:49.477Z,60.66
2019-05-20T10:07:28.103Z,59.43
2019-05-20T10:10:05.463Z,58.86
2019-05-20T10:12:46.494Z,56.92
2019-05-20T10:15:22.274Z,56.37
2019-05-20T10:17:59.863Z,57.38
2019-05-20T10:20:37.647Z,57.25
2019-05-20T10:23:15.925Z,55.85
2019-05-20T10:25:53.938Z,55.57
2019-05-20T10:28:31.482Z,55.20
2019-05-20T10:31:10.235Z,53.87
2019-05-20T10:33:47.655Z,54.44
2019-05-20T10:36:26.518Z,54.56
2019-05-20T10:39:07.792Z,54.51
2019-05-20T10:41:45.650Z,54.41
2019-05-20T10:44:22.980Z,54.66
2019-05-20T10:47:00.711Z,54.67
2019-05-20T10:49:37.810Z,54.39
2019-05-20T10:52:15.144Z,54.16
2019-05-20T10:54:52.441Z,54.34
2019-05-20T10:57:31.049Z,54.37
2019-05-20T11:00:08.873Z,54.09
2019-05-20T11:02:47.226Z,53.81
2019-05-20T11:05:24.656Z,55.14
2019-05-20T11:08:03.587Z,55.84
2019-05-20T11:10:42.413Z,56.76
2019-05-20T11:13:20.549Z,57.29
2019-05-20T11:15:58.266Z,57.51
2019-05-20T11:18:36.733Z,58.56
2019-05-20T11:21:13.761Z,60.43
2019-05-20T11:23:51.177Z,60.47
2019-05-20T11:26:28.362Z,60.25
2019-05-20T11:29:06.321Z,62.84
2019-05-20T11:31:43.976Z,62.47
2019-05-20T11:34:21.072Z,62.97
2019-05-20T11:37:00.504Z,63.86
2019-05-20T11:39:39.973Z,65.13
2019-05-20T11:42:19.804Z,65.25
2019-05-20T11:44:57.432Z,65.26
2019-05-20T11:47:35.377Z,65.10
2019-05-20T11:50:14.349Z,65.73
2019-05-20T11:52:51.703Z,65.87
2019-05-20T11:55:29.788Z,65.40
2019-05-20T11:58:15.755Z,65.98
2019-05-20T12:00:46.682Z,66.82
2019-05-20T12:03:23.768Z,65.69
2019-05-20T12:06:01.560Z,65.73
2019-05-20T12:08:38.894Z,66.04
2019-05-20T12:11:16.866Z,66.94
2019-05-20T12:13:55.559Z,66.78
2019-05-20T12:16:33.632Z,67.87
2019-05-20T12:19:12.024Z,68.62
2019-05-20T12:21:50.293Z,69.27
2019-05-20T12:24:27.367Z,68.87
2019-05-20T12:27:04.672Z,68.50
2019-05-20T12:29:41.985Z,69.23
2019-05-20T12:32:20.315Z,69.45
2019-05-20T12:34:57.761Z,69.85
2019-05-20T12:37:35.567Z,69.42
2019-05-20T12:40:14.064Z,69.49
2019-05-20T12:42:52.112Z,68.59
2019-05-20T12:45:30.575Z,68.81
2019-05-20T12:48:07.953Z,69.22
2019-05-20T12:50:45.441Z,70.30
2019-05-20T12:53:23.551Z,69.86
2019-05-20T12:56:00.911Z,69.22
2019-05-20T12:58:39.587Z,69.13
2019-05-20T13:01:16.839Z,69.37
2019-05-20T13:03:55.292Z,69.08
2019-05-20T13:06:33.268Z,68.77
2019-05-20T13:09:11.748Z,68.80
2019-05-20T13:11:49.141Z,68.69
2019-05-20T13:14:26.928Z,67.92
2019-05-20T13:17:05.696Z,68.28
2019-05-20T13:19:43.304Z,69.33
2019-05-20T13:22:20.721Z,69.40
2019-05-20T13:24:59.654Z,69.37
2019-05-20T13:27:37.140Z,69.43
2019-05-20T13:30:14.835Z,69.44
2019-05-20T13:32:52.903Z,69.53
2019-05-20T13:35:30.964Z,69.18
2019-05-20T13:38:08.480Z,68.45
2019-05-20T13:40:47.316Z,68.28
2019-05-20T13:43:24.366Z,68.96
2019-05-20T13:46:02.692Z,68.26
2019-05-20T13:48:41.072Z,68.60
2019-05-20T13:51:18.680Z,68.69
2019-05-20T13:53:56.161Z,69.38
2019-05-20T13:56:34.686Z,69.14
2019-05-20T13:59:12.125Z,67.99
2019-05-20T14:01:49.846Z,68.06
2019-05-20T14:04:27.295Z,68.22
2019-05-20T14:07:05.374Z,68.83
2019-05-20T14:09:43.085Z,69.51
2019-05-20T14:12:20.495Z,69.52
2019-05-20T14:14:57.591Z,68.77
2019-05-20T14:17:36.878Z,68.03
2019-05-20T14:20:15.780Z,67.82
2019-05-20T14:22:53.057Z,68.13
2019-05-20T14:25:31.725Z,68.95
2019-05-20T14:28:09.403Z,68.56
2019-05-20T14:30:46.384Z,67.94
2019-05-20T14:33:24.635Z,67.97
2019-05-20T14:36:03.406Z,67.99
2019-05-20T14:38:41.676Z,68.04
2019-05-20T14:41:21.923Z,67.68
2019-05-20T14:43:58.373Z,67.18
2019-05-20T14:46:36.146Z,67.15
2019-05-20T14:49:14.201Z,66.78
2019-05-20T14:51:53.836Z,66.25
2019-05-20T14:54:31.706Z,66.12
2019-05-20T14:57:09.892Z,67.12
2019-05-20T14:59:47.698Z,67.88
2019-05-20T15:02:25.382Z,68.64
2019-05-20T15:05:02.883Z,69.47
2019-05-20T15:07:40.048Z,69.32
2019-05-20T15:10:18.971Z,69.57
2019-05-20T15:12:56.415Z,69.72
2019-05-20T15:15:35.584Z,70.80
2019-05-20T15:18:13.014Z,70.33
2019-05-20T15:20:51.028Z,70.68
2019-05-20T15:23:29.601Z,70.36
2019-05-20T15:26:07.308Z,71.29
2019-05-20T15:28:44.425Z,71.25
2019-05-20T15:31:22.829Z,70.72
2019-05-20T15:34:00.871Z,71.32
2019-05-20T15:36:38.101Z,72.25
2019-05-20T15:39:15.587Z,71.69
2019-05-20T15:41:53.555Z,71.34
2019-05-20T15:44:30.858Z,71.07
2019-05-20T15:47:08.762Z,72.02
2019-05-20T15:49:45.990Z,71.12
2019-05-20T15:52:24.468Z,71.14
2019-05-20T15:55:02.961Z,71.12
2019-05-20T15:57:40.532Z,72.15
2019-05-20T16:00:18.320Z,71.83
2019-05-20T16:02:56.174Z,71.59
2019-05-20T16:05:33.907Z,70.95
2019-05-20T16:08:11.327Z,71.62
2019-05-20T16:10:48.560Z,71.42
2019-05-20T16:13:26.775Z,70.99
2019-05-20T16:16:04.258Z,70.65
2019-05-20T16:18:42.111Z,71.21
2019-05-20T16:21:19.756Z,70.20
2019-05-20T16:23:57.758Z,69.25
2019-05-20T16:26:36.684Z,69.07
2019-05-20T16:29:14.574Z,69.80
2019-05-20T16:31:52.379Z,69.77
2019-05-20T16:34:31.055Z,69.60
2019-05-20T16:37:08.712Z,69.75
2019-05-20T16:39:46.537Z,69.91
2019-05-20T16:42:24.137Z,69.85
2019-05-20T16:45:02.224Z,70.13
2019-05-20T16:47:40.279Z,70.67
2019-05-20T16:50:19.359Z,70.98
2019-05-20T16:52:57.392Z,70.50
2019-05-20T16:55:42.135Z,71.02
2019-05-20T16:58:26.424Z,72.39
2019-05-20T17:01:03.667Z,71.92
2019-05-20T17:03:41.826Z,71.44
2019-05-20T17:06:19.969Z,71.53
2019-05-20T17:08:57.526Z,71.32
2019-05-20T17:11:35.348Z,70.82
2019-05-20T17:14:12.478Z,70.49
2019-05-20T17:16:51.051Z,70.16
2019-05-20T17:19:28.531Z,70.23
2019-05-20T17:22:06.210Z,69.94
2019-05-20T17:24:43.605Z,70.23
2019-05-20T17:27:21.657Z,69.63
2019-05-20T17:30:00.433Z,69.18
2019-05-20T17:32:39.398Z,67.86
2019-05-20T17:35:17.728Z,67.06
2019-05-20T17:37:56.556Z,67.57
2019-05-20T17:40:34.306Z,67.53
2019-05-20T17:43:12.262Z,66.81
2019-05-20T17:45:49.630Z,66.63
2019-05-20T17:48:28.811Z,67.12
2019-05-20T17:51:06.530Z,66.30
2019-05-20T17:53:44.036Z,65.63
2019-05-20T17:56:24.057Z,65.56
2019-05-20T17:59:01.664Z,66.65
2019-05-20T18:01:40.765Z,67.07
2019-05-20T18:04:18.471Z,66.35
2019-05-20T18:06:55.839Z,66.32
2019-05-20T18:09:36.609Z,67.02
2019-05-20T18:12:14.134Z,67.22
2019-05-20T18:14:56.912Z,66.76
2019-05-20T18:17:34.376Z,66.89
2019-05-20T18:20:14.120Z,66.77
2019-05-20T18:22:51.091Z,66.09
2019-05-20T18:25:28.943Z,66.39
2019-05-20T18:28:06.355Z,67.13
2019-05-20T18:30:44.167Z,66.99
2019-05-20T18:33:25.147Z,67.00
2019-05-20T18:36:03.034Z,66.50
2019-05-20T18:38:41.873Z,66.90
2019-05-20T18:41:19.861Z,66.20
2019-05-20T18:43:58.305Z,65.61
2019-05-20T18:46:37.083Z,65.74
2019-05-20T18:49:14.337Z,65.94
2019-05-20T18:51:52.414Z,66.16
2019-05-20T18:54:30.140Z,65.89
2019-05-20T18:57:07.488Z,65.71
2019-05-20T18:59:44.698Z,65.68
2019-05-20T19:02:48.857Z,65.21
2019-05-20T19:05:27.444Z,64.47
2019-05-20T19:08:05.987Z,65.75
2019-05-20T19:10:43.725Z,65.22
2019-05-20T19:13:21.809Z,64.70
2019-05-20T19:15:59.043Z,64.42
2019-05-20T19:18:39.263Z,65.08
2019-05-20T19:21:16.765Z,64.80
2019-05-20T19:23:54.794Z,64.88
2019-05-20T19:26:32.522Z,65.56
2019-05-20T19:29:10.066Z,65.60
2019-05-20T19:32:00.692Z,65.64
2019-05-20T19:34:29.661Z,66.06
2019-05-20T19:37:08.544Z,66.14
2019-05-20T19:39:46.228Z,65.68
2019-05-20T19:42:24.266Z,65.71
2019-05-20T19:45:02.086Z,65.80
2019-05-20T19:47:40.944Z,66.64
2019-05-20T19:50:18.640Z,66.22
2019-05-20T19:52:55.921Z,66.10
2019-05-20T19:55:33.865Z,65.91
2019-05-20T19:58:11.149Z,66.52
2019-05-20T20:00:48.967Z,65.72
2019-05-20T20:03:26.540Z,65.44
2019-05-20T20:06:04.440Z,65.42
2019-05-20T20:08:43.476Z,65.78
2019-05-20T20:11:21.545Z,65.28
2019-05-20T20:13:58.446Z,65.20
2019-05-20T20:16:36.544Z,66.08
2019-05-20T20:19:13.954Z,66.59
2019-05-20T20:21:51.560Z,66.94
2019-05-20T20:24:29.341Z,66.97
2019-05-20T20:27:08.122Z,68.38
2019-05-20T20:29:45.626Z,69.15
2019-05-20T20:32:37.526Z,68.68
2019-05-20T20:35:06.435Z,68.87
2019-05-20T20:37:45.081Z,68.44
2019-05-20T20:40:24.264Z,68.44
2019-05-20T20:43:01.679Z,68.31
2019-05-20T20:45:39.375Z,68.21
2019-05-20T20:48:17.348Z,68.81
2019-05-20T20:50:54.392Z,68.14
2019-05-20T20:53:31.619Z,67.46
2019-05-20T20:56:22.727Z,67.98
2019-05-20T20:58:48.176Z,68.35
2019-05-20T21:01:25.944Z,68.06
2019-05-20T21:04:06.099Z,67.86
2019-05-20T21:06:45.803Z,68.16
2019-05-20T21:09:24.001Z,68.10
2019-05-20T21:12:02.801Z,67.89
2019-05-20T21:14:40.653Z,68.03
2019-05-20T21:17:19.340Z,68.14
2019-05-20T21:19:59.816Z,68.32
2019-05-20T21:22:37.354Z,68.18
2019-05-20T21:25:15.238Z,68.25
2019-05-20T21:27:53.007Z,68.68
2019-05-20T21:30:30.650Z,68.25
2019-05-20T21:33:09.611Z,67.39
2019-05-20T21:35:46.928Z,67.08
2019-05-20T21:38:25.964Z,67.34
2019-05-20T21:41:03.958Z,67.24
2019-05-20T21:43:42.436Z,67.29
2019-05-20T21:46:20.136Z,68.21
2019-05-20T21:48:57.787Z,68.04
2019-05-20T21:51:35.751Z,67.77
2019-05-20T21:54:16.685Z,67.58
2019-05-20T21:56:53.968Z,68.13
2019-05-20T21:59:31.611Z,67.86
2019-05-20T22:02:09.895Z,68.14
2019-05-20T22:04:48.795Z,68.49
2019-05-20T22:07:26.457Z,68.72
2019-05-20T22:10:03.713Z,68.03
2019-05-20T22:12:43.328Z,67.98
2019-05-20T22:15:22.130Z,68.17
2019-05-20T22:18:00.170Z,68.45
2019-05-20T22:20:38.341Z,67.87
2019-05-20T22:23:47.928Z,66.46
2019-05-20T22:26:25.061Z,67.68
2019-05-20T22:29:02.621Z,68.33
2019-05-20T22:31:40.013Z,68.62
2019-05-20T22:34:19.549Z,68.82
2019-05-20T22:36:56.937Z,69.93
2019-05-20T22:39:35.384Z,69.41
2019-05-20T22:42:12.958Z,68.87
2019-05-20T22:44:51.333Z,68.43
2019-05-20T22:47:29.484Z,68.01
2019-05-20T22:50:09.421Z,67.51
2019-05-20T22:52:46.962Z,68.03
2019-05-20T22:55:28.571Z,68.29
2019-05-20T22:58:06.734Z,68.07
2019-05-20T23:00:44.209Z,68.18
2019-05-20T23:03:21.821Z,69.26
2019-05-20T23:05:59.884Z,69.73
2019-05-20T23:08:38.620Z,68.22
2019-05-20T23:11:20.207Z,68.96
2019-05-20T23:13:59.254Z,69.66
2019-05-20T23:16:37.345Z,70.88
2019-05-20T23:19:15.902Z,71.06
2019-05-20T23:21:53.545Z,70.61
2019-05-20T23:24:30.990Z,70.47
2019-05-20T23:27:09.791Z,70.46
2019-05-20T23:29:46.924Z,70.65
2019-05-20T23:32:24.666Z,68.31
2019-05-20T23:35:02.254Z,68.10
2019-05-20T23:37:41.356Z,66.27
2019-05-20T23:40:19.463Z,65.85
2019-05-20T23:42:56.950Z,65.36
2019-05-20T23:45:34.008Z,65.29
2019-05-20T23:48:12.648Z,64.24
2019-05-20T23:50:51.209Z,63.03
2019-05-20T23:53:29.476Z,62.83
2019-05-20T23:56:06.881Z,62.93
2019-05-20T23:58:45.302Z,62.88
